sensor_id;sensor_type;location;lat;lon;timestamp;P1;durP1;ratioP1;P2;durP2;ratioP2
55655;SDS011;41530;52.382;5.270;2023-04-24T00:02:18;0.50;;;0.50;;
55655;SDS011;41530;52.382;5.270;2023-04-24T00:04:45;0.90;;;0.60;;
55655;SDS011;41530;52.382;5.270;2023-04-24T00:07:12;1.10;;;0.57;;
55655;SDS011;41530;52.382;5.270;2023-04-24T00:09:39;0.60;;;0.40;;
55655;SDS011;41530;52.382;5.270;2023-04-24T00:12:06;1.75;;;0.50;;
55655;SDS011;41530;52.382;5.270;2023-04-24T00:14:33;0.73;;;0.60;;
55655;SDS011;41530;52.382;5.270;2023-04-24T00:17:01;0.85;;;0.50;;
55655;SDS011;41530;52.382;5.270;2023-04-24T00:19:31;0.60;;;0.60;;
55655;SDS011;41530;52.382;5.270;2023-04-24T00:21:58;1.58;;;0.63;;
55655;SDS011;41530;52.382;5.270;2023-04-24T00:24:24;1.25;;;0.57;;
55655;SDS011;41530;52.382;5.270;2023-04-24T00:26:51;1.00;;;0.45;;
55655;SDS011;41530;52.382;5.270;2023-04-24T00:29:17;0.60;;;0.60;;
55655;SDS011;41530;52.382;5.270;2023-04-24T00:31:44;0.80;;;0.60;;
55655;SDS011;41530;52.382;5.270;2023-04-24T00:34:11;2.08;;;0.70;;
55655;SDS011;41530;52.382;5.270;2023-04-24T00:36:38;0.70;;;0.70;;
55655;SDS011;41530;52.382;5.270;2023-04-24T00:39:05;1.45;;;0.85;;
55655;SDS011;41530;52.382;5.270;2023-04-24T00:41:35;0.80;;;0.70;;
55655;SDS011;41530;52.382;5.270;2023-04-24T00:44:01;0.68;;;0.68;;
55655;SDS011;41530;52.382;5.270;2023-04-24T00:46:28;1.50;;;0.70;;
55655;SDS011;41530;52.382;5.270;2023-04-24T00:48:55;1.73;;;1.27;;
55655;SDS011;41530;52.382;5.270;2023-04-24T00:51:22;1.25;;;0.75;;
55655;SDS011;41530;52.382;5.270;2023-04-24T00:53:50;1.20;;;1.10;;
55655;SDS011;41530;52.382;5.270;2023-04-24T00:56:18;1.30;;;1.20;;
55655;SDS011;41530;52.382;5.270;2023-04-24T00:58:46;1.45;;;1.35;;
55655;SDS011;41530;52.382;5.270;2023-04-24T01:01:13;1.67;;;1.30;;
55655;SDS011;41530;52.382;5.270;2023-04-24T01:03:40;2.60;;;1.30;;
55655;SDS011;41530;52.382;5.270;2023-04-24T01:06:07;1.00;;;1.00;;
55655;SDS011;41530;52.382;5.270;2023-04-24T01:08:36;1.27;;;0.90;;
55655;SDS011;41530;52.382;5.270;2023-04-24T01:11:04;1.05;;;0.60;;
55655;SDS011;41530;52.382;5.270;2023-04-24T01:13:31;2.25;;;0.50;;
55655;SDS011;41530;52.382;5.270;2023-04-24T01:15:59;0.40;;;0.40;;
55655;SDS011;41530;52.382;5.270;2023-04-24T01:18:27;0.47;;;0.35;;
55655;SDS011;41530;52.382;5.270;2023-04-24T01:20:56;0.35;;;0.30;;
55655;SDS011;41530;52.382;5.270;2023-04-24T01:23:24;0.30;;;0.20;;
55655;SDS011;41530;52.382;5.270;2023-04-24T01:25:51;1.40;;;0.20;;
55655;SDS011;41530;52.382;5.270;2023-04-24T01:28:18;1.02;;;0.17;;
55655;SDS011;41530;52.382;5.270;2023-04-24T01:30:45;0.70;;;0.40;;
55655;SDS011;41530;52.382;5.270;2023-04-24T01:33:11;0.10;;;0.10;;
55655;SDS011;41530;52.382;5.270;2023-04-24T01:35:38;1.40;;;0.30;;
55655;SDS011;41530;52.382;5.270;2023-04-24T01:38:06;1.42;;;0.30;;
55655;SDS011;41530;52.382;5.270;2023-04-24T01:40:32;2.38;;;0.40;;
55655;SDS011;41530;52.382;5.270;2023-04-24T01:43:00;0.45;;;0.30;;
55655;SDS011;41530;52.382;5.270;2023-04-24T01:45:26;0.75;;;0.30;;
55655;SDS011;41530;52.382;5.270;2023-04-24T01:47:53;0.40;;;0.40;;
55655;SDS011;41530;52.382;5.270;2023-04-24T01:50:20;2.95;;;0.50;;
55655;SDS011;41530;52.382;5.270;2023-04-24T01:52:46;0.32;;;0.20;;
55655;SDS011;41530;52.382;5.270;2023-04-24T01:55:13;0.40;;;0.40;;
55655;SDS011;41530;52.382;5.270;2023-04-24T01:57:40;0.60;;;0.20;;
55655;SDS011;41530;52.382;5.270;2023-04-24T02:00:06;3.55;;;0.30;;
55655;SDS011;41530;52.382;5.270;2023-04-24T02:02:33;3.70;;;0.30;;
55655;SDS011;41530;52.382;5.270;2023-04-24T02:05:01;0.85;;;0.15;;
55655;SDS011;41530;52.382;5.270;2023-04-24T02:07:27;0.68;;;0.30;;
55655;SDS011;41530;52.382;5.270;2023-04-24T02:09:54;0.52;;;0.30;;
55655;SDS011;41530;52.382;5.270;2023-04-24T02:12:21;1.30;;;0.20;;
55655;SDS011;41530;52.382;5.270;2023-04-24T02:14:48;0.65;;;0.13;;
55655;SDS011;41530;52.382;5.270;2023-04-24T02:17:14;0.68;;;0.20;;
55655;SDS011;41530;52.382;5.270;2023-04-24T02:19:42;0.30;;;0.20;;
55655;SDS011;41530;52.382;5.270;2023-04-24T02:22:09;0.40;;;0.20;;
55655;SDS011;41530;52.382;5.270;2023-04-24T02:24:36;0.20;;;0.20;;
55655;SDS011;41530;52.382;5.270;2023-04-24T02:27:03;0.28;;;0.17;;
55655;SDS011;41530;52.382;5.270;2023-04-24T02:29:30;0.30;;;0.20;;
55655;SDS011;41530;52.382;5.270;2023-04-24T02:31:57;0.30;;;0.17;;
55655;SDS011;41530;52.382;5.270;2023-04-24T02:34:23;0.65;;;0.20;;
55655;SDS011;41530;52.382;5.270;2023-04-24T02:36:50;0.20;;;0.20;;
55655;SDS011;41530;52.382;5.270;2023-04-24T02:39:17;0.73;;;0.20;;
55655;SDS011;41530;52.382;5.270;2023-04-24T02:41:44;1.50;;;0.20;;
55655;SDS011;41530;52.382;5.270;2023-04-24T02:44:11;0.38;;;0.10;;
55655;SDS011;41530;52.382;5.270;2023-04-24T02:46:38;0.50;;;0.20;;
55655;SDS011;41530;52.382;5.270;2023-04-24T02:49:04;1.33;;;0.30;;
55655;SDS011;41530;52.382;5.270;2023-04-24T02:51:31;1.27;;;0.28;;
55655;SDS011;41530;52.382;5.270;2023-04-24T02:53:57;0.73;;;0.15;;
55655;SDS011;41530;52.382;5.270;2023-04-24T02:56:24;0.30;;;0.20;;
55655;SDS011;41530;52.382;5.270;2023-04-24T02:58:51;1.23;;;0.25;;
55655;SDS011;41530;52.382;5.270;2023-04-24T03:01:17;0.20;;;0.20;;
55655;SDS011;41530;52.382;5.270;2023-04-24T03:03:44;0.10;;;0.10;;
55655;SDS011;41530;52.382;5.270;2023-04-24T03:06:11;0.57;;;0.30;;
55655;SDS011;41530;52.382;5.270;2023-04-24T03:08:38;0.30;;;0.20;;
55655;SDS011;41530;52.382;5.270;2023-04-24T03:11:04;0.35;;;0.20;;
55655;SDS011;41530;52.382;5.270;2023-04-24T03:13:31;0.68;;;0.20;;
55655;SDS011;41530;52.382;5.270;2023-04-24T03:15:57;0.22;;;0.10;;
55655;SDS011;41530;52.382;5.270;2023-04-24T03:18:24;1.38;;;0.20;;
55655;SDS011;41530;52.382;5.270;2023-04-24T03:20:51;1.00;;;0.17;;
55655;SDS011;41530;52.382;5.270;2023-04-24T03:23:18;0.15;;;0.10;;
55655;SDS011;41530;52.382;5.270;2023-04-24T03:25:44;1.90;;;0.20;;
55655;SDS011;41530;52.382;5.270;2023-04-24T03:28:11;0.63;;;0.20;;
55655;SDS011;41530;52.382;5.270;2023-04-24T03:30:38;1.33;;;0.10;;
55655;SDS011;41530;52.382;5.270;2023-04-24T03:33:04;0.80;;;0.15;;
55655;SDS011;41530;52.382;5.270;2023-04-24T03:35:31;0.32;;;0.13;;
55655;SDS011;41530;52.382;5.270;2023-04-24T03:37:58;0.30;;;0.10;;
55655;SDS011;41530;52.382;5.270;2023-04-24T03:40:24;1.00;;;0.20;;
55655;SDS011;41530;52.382;5.270;2023-04-24T03:42:51;0.65;;;0.10;;
55655;SDS011;41530;52.382;5.270;2023-04-24T03:45:18;0.40;;;0.10;;
55655;SDS011;41530;52.382;5.270;2023-04-24T03:47:44;0.88;;;0.25;;
55655;SDS011;41530;52.382;5.270;2023-04-24T03:50:11;0.85;;;0.20;;
55655;SDS011;41530;52.382;5.270;2023-04-24T03:52:38;0.25;;;0.10;;
55655;SDS011;41530;52.382;5.270;2023-04-24T03:55:05;0.20;;;0.17;;
55655;SDS011;41530;52.382;5.270;2023-04-24T03:57:32;0.50;;;0.20;;
55655;SDS011;41530;52.382;5.270;2023-04-24T03:59:59;0.20;;;0.10;;
55655;SDS011;41530;52.382;5.270;2023-04-24T04:02:26;0.28;;;0.10;;
55655;SDS011;41530;52.382;5.270;2023-04-24T04:04:52;0.65;;;0.17;;
55655;SDS011;41530;52.382;5.270;2023-04-24T04:07:19;0.63;;;0.17;;
55655;SDS011;41530;52.382;5.270;2023-04-24T04:09:46;0.70;;;0.20;;
55655;SDS011;41530;52.382;5.270;2023-04-24T04:12:12;0.70;;;0.10;;
55655;SDS011;41530;52.382;5.270;2023-04-24T04:14:39;0.43;;;0.20;;
55655;SDS011;41530;52.382;5.270;2023-04-24T04:17:06;0.50;;;0.10;;
55655;SDS011;41530;52.382;5.270;2023-04-24T04:19:32;0.10;;;0.10;;
55655;SDS011;41530;52.382;5.270;2023-04-24T04:21:59;0.13;;;0.10;;
55655;SDS011;41530;52.382;5.270;2023-04-24T04:24:25;0.10;;;0.10;;
55655;SDS011;41530;52.382;5.270;2023-04-24T04:26:52;0.20;;;0.10;;
55655;SDS011;41530;52.382;5.270;2023-04-24T04:29:22;0.50;;;0.10;;
55655;SDS011;41530;52.382;5.270;2023-04-24T04:31:50;0.65;;;0.15;;
55655;SDS011;41530;52.382;5.270;2023-04-24T04:34:17;0.45;;;0.20;;
55655;SDS011;41530;52.382;5.270;2023-04-24T04:36:43;0.10;;;0.10;;
55655;SDS011;41530;52.382;5.270;2023-04-24T04:39:10;0.65;;;0.20;;
55655;SDS011;41530;52.382;5.270;2023-04-24T04:41:37;0.30;;;0.20;;
55655;SDS011;41530;52.382;5.270;2023-04-24T04:44:06;0.43;;;0.10;;
55655;SDS011;41530;52.382;5.270;2023-04-24T04:46:35;0.52;;;0.20;;
55655;SDS011;41530;52.382;5.270;2023-04-24T04:49:03;0.00;;;0.00;;
55655;SDS011;41530;52.382;5.270;2023-04-24T04:51:30;0.00;;;0.00;;
55655;SDS011;41530;52.382;5.270;2023-04-24T04:53:58;0.10;;;0.10;;
55655;SDS011;41530;52.382;5.270;2023-04-24T04:56:24;1.08;;;0.10;;
55655;SDS011;41530;52.382;5.270;2023-04-24T04:58:51;0.30;;;0.10;;
55655;SDS011;41530;52.382;5.270;2023-04-24T05:01:18;0.10;;;0.10;;
55655;SDS011;41530;52.382;5.270;2023-04-24T05:03:45;0.10;;;0.10;;
55655;SDS011;41530;52.382;5.270;2023-04-24T05:06:12;0.47;;;0.28;;
55655;SDS011;41530;52.382;5.270;2023-04-24T05:08:38;0.20;;;0.20;;
55655;SDS011;41530;52.382;5.270;2023-04-24T05:11:05;0.45;;;0.13;;
55655;SDS011;41530;52.382;5.270;2023-04-24T05:13:32;0.63;;;0.10;;
55655;SDS011;41530;52.382;5.270;2023-04-24T05:16:06;0.20;;;0.20;;
55655;SDS011;41530;52.382;5.270;2023-04-24T05:18:33;0.38;;;0.28;;
55655;SDS011;41530;52.382;5.270;2023-04-24T05:21:00;0.20;;;0.15;;
55655;SDS011;41530;52.382;5.270;2023-04-24T05:23:27;2.50;;;0.20;;
55655;SDS011;41530;52.382;5.270;2023-04-24T05:25:54;2.78;;;0.40;;
55655;SDS011;41530;52.382;5.270;2023-04-24T05:28:20;24.20;;;0.50;;
55655;SDS011;41530;52.382;5.270;2023-04-24T05:30:47;0.88;;;0.17;;
55655;SDS011;41530;52.382;5.270;2023-04-24T05:33:14;0.32;;;0.20;;
55655;SDS011;41530;52.382;5.270;2023-04-24T05:35:40;0.22;;;0.17;;
55655;SDS011;41530;52.382;5.270;2023-04-24T05:38:12;0.50;;;0.20;;
55655;SDS011;41530;52.382;5.270;2023-04-24T05:40:39;1.30;;;0.32;;
55655;SDS011;41530;52.382;5.270;2023-04-24T05:43:06;0.40;;;0.22;;
55655;SDS011;41530;52.382;5.270;2023-04-24T05:45:32;0.47;;;0.20;;
55655;SDS011;41530;52.382;5.270;2023-04-24T05:48:01;0.57;;;0.20;;
55655;SDS011;41530;52.382;5.270;2023-04-24T05:50:29;0.52;;;0.20;;
55655;SDS011;41530;52.382;5.270;2023-04-24T05:52:56;1.15;;;0.30;;
55655;SDS011;41530;52.382;5.270;2023-04-24T05:55:24;0.50;;;0.30;;
55655;SDS011;41530;52.382;5.270;2023-04-24T05:57:52;4.57;;;0.30;;
55655;SDS011;41530;52.382;5.270;2023-04-24T06:00:18;0.95;;;0.30;;
55655;SDS011;41530;52.382;5.270;2023-04-24T06:02:46;0.77;;;0.30;;
55655;SDS011;41530;52.382;5.270;2023-04-24T06:05:13;1.13;;;0.57;;
55655;SDS011;41530;52.382;5.270;2023-04-24T06:07:41;1.95;;;1.00;;
55655;SDS011;41530;52.382;5.270;2023-04-24T06:10:08;3.40;;;1.70;;
55655;SDS011;41530;52.382;5.270;2023-04-24T06:12:35;8.18;;;1.70;;
55655;SDS011;41530;52.382;5.270;2023-04-24T06:15:03;2.95;;;2.13;;
55655;SDS011;41530;52.382;5.270;2023-04-24T06:17:30;6.32;;;3.00;;
55655;SDS011;41530;52.382;5.270;2023-04-24T06:19:57;5.90;;;3.00;;
55655;SDS011;41530;52.382;5.270;2023-04-24T06:22:24;5.10;;;3.00;;
55655;SDS011;41530;52.382;5.270;2023-04-24T06:24:50;4.03;;;2.42;;
55655;SDS011;41530;52.382;5.270;2023-04-24T06:27:17;4.57;;;2.25;;
55655;SDS011;41530;52.382;5.270;2023-04-24T06:29:43;5.45;;;2.50;;
55655;SDS011;41530;52.382;5.270;2023-04-24T06:32:10;3.60;;;2.13;;
55655;SDS011;41530;52.382;5.270;2023-04-24T06:34:37;5.45;;;2.13;;
55655;SDS011;41530;52.382;5.270;2023-04-24T06:37:04;6.50;;;2.40;;
55655;SDS011;41530;52.382;5.270;2023-04-24T06:39:30;3.35;;;2.25;;
55655;SDS011;41530;52.382;5.270;2023-04-24T06:41:58;4.20;;;2.00;;
55655;SDS011;41530;52.382;5.270;2023-04-24T06:44:25;5.13;;;1.80;;
55655;SDS011;41530;52.382;5.270;2023-04-24T06:46:51;1.95;;;1.40;;
55655;SDS011;41530;52.382;5.270;2023-04-24T06:49:18;4.22;;;1.50;;
55655;SDS011;41530;52.382;5.270;2023-04-24T06:51:44;4.40;;;1.73;;
55655;SDS011;41530;52.382;5.270;2023-04-24T06:54:11;4.72;;;2.15;;
55655;SDS011;41530;52.382;5.270;2023-04-24T06:56:38;2.60;;;1.23;;
55655;SDS011;41530;52.382;5.270;2023-04-24T06:59:04;2.28;;;1.25;;
55655;SDS011;41530;52.382;5.270;2023-04-24T07:01:31;4.68;;;1.40;;
55655;SDS011;41530;52.382;5.270;2023-04-24T07:03:57;4.80;;;1.52;;
55655;SDS011;41530;52.382;5.270;2023-04-24T07:06:24;2.80;;;1.50;;
55655;SDS011;41530;52.382;5.270;2023-04-24T07:08:51;2.75;;;1.52;;
55655;SDS011;41530;52.382;5.270;2023-04-24T07:11:18;1.20;;;1.08;;
55655;SDS011;41530;52.382;5.270;2023-04-24T07:13:44;7.22;;;2.45;;
55655;SDS011;41530;52.382;5.270;2023-04-24T07:16:11;5.68;;;1.13;;
55655;SDS011;41530;52.382;5.270;2023-04-24T07:18:38;2.33;;;1.17;;
55655;SDS011;41530;52.382;5.270;2023-04-24T07:21:06;4.05;;;1.30;;
55655;SDS011;41530;52.382;5.270;2023-04-24T07:23:33;2.47;;;1.13;;
55655;SDS011;41530;52.382;5.270;2023-04-24T07:25:59;1.67;;;1.15;;
55655;SDS011;41530;52.382;5.270;2023-04-24T07:28:26;1.85;;;1.30;;
55655;SDS011;41530;52.382;5.270;2023-04-24T07:30:53;3.95;;;1.20;;
55655;SDS011;41530;52.382;5.270;2023-04-24T07:33:20;3.90;;;1.50;;
55655;SDS011;41530;52.382;5.270;2023-04-24T07:35:47;2.80;;;1.30;;
55655;SDS011;41530;52.382;5.270;2023-04-24T07:38:14;2.38;;;1.40;;
55655;SDS011;41530;52.382;5.270;2023-04-24T07:40:41;3.20;;;1.38;;
55655;SDS011;41530;52.382;5.270;2023-04-24T07:43:08;2.72;;;1.30;;
55655;SDS011;41530;52.382;5.270;2023-04-24T07:45:34;2.55;;;1.30;;
55655;SDS011;41530;52.382;5.270;2023-04-24T07:48:03;5.70;;;1.50;;
55655;SDS011;41530;52.382;5.270;2023-04-24T07:50:30;1.85;;;1.20;;
55655;SDS011;41530;52.382;5.270;2023-04-24T07:52:57;3.30;;;1.30;;
55655;SDS011;41530;52.382;5.270;2023-04-24T07:55:24;3.72;;;1.30;;
55655;SDS011;41530;52.382;5.270;2023-04-24T07:57:53;2.85;;;1.30;;
55655;SDS011;41530;52.382;5.270;2023-04-24T08:00:20;2.00;;;1.15;;
55655;SDS011;41530;52.382;5.270;2023-04-24T08:02:47;2.67;;;1.25;;
55655;SDS011;41530;52.382;5.270;2023-04-24T08:05:14;1.67;;;1.25;;
55655;SDS011;41530;52.382;5.270;2023-04-24T08:07:41;2.78;;;1.33;;
55655;SDS011;41530;52.382;5.270;2023-04-24T08:10:11;2.65;;;1.13;;
55655;SDS011;41530;52.382;5.270;2023-04-24T08:12:38;2.88;;;1.40;;
55655;SDS011;41530;52.382;5.270;2023-04-24T08:15:05;2.58;;;1.17;;
55655;SDS011;41530;52.382;5.270;2023-04-24T08:17:32;1.95;;;1.17;;
55655;SDS011;41530;52.382;5.270;2023-04-24T08:19:59;1.92;;;1.23;;
55655;SDS011;41530;52.382;5.270;2023-04-24T08:22:27;1.52;;;1.10;;
55655;SDS011;41530;52.382;5.270;2023-04-24T08:24:54;2.03;;;1.05;;
55655;SDS011;41530;52.382;5.270;2023-04-24T08:27:23;2.20;;;1.30;;
55655;SDS011;41530;52.382;5.270;2023-04-24T08:29:50;3.83;;;1.30;;
55655;SDS011;41530;52.382;5.270;2023-04-24T08:32:16;2.47;;;1.10;;
55655;SDS011;41530;52.382;5.270;2023-04-24T08:34:43;2.70;;;1.20;;
55655;SDS011;41530;52.382;5.270;2023-04-24T08:37:09;2.70;;;1.33;;
55655;SDS011;41530;52.382;5.270;2023-04-24T08:39:36;2.72;;;1.58;;
55655;SDS011;41530;52.382;5.270;2023-04-24T08:42:04;2.30;;;1.20;;
55655;SDS011;41530;52.382;5.270;2023-04-24T08:44:34;2.80;;;1.10;;
55655;SDS011;41530;52.382;5.270;2023-04-24T08:47:02;2.22;;;1.45;;
55655;SDS011;41530;52.382;5.270;2023-04-24T08:49:29;3.00;;;1.25;;
55655;SDS011;41530;52.382;5.270;2023-04-24T08:51:56;1.98;;;1.10;;
55655;SDS011;41530;52.382;5.270;2023-04-24T08:54:22;1.98;;;1.23;;
55655;SDS011;41530;52.382;5.270;2023-04-24T08:56:51;2.13;;;1.20;;
55655;SDS011;41530;52.382;5.270;2023-04-24T08:59:20;2.85;;;1.10;;
55655;SDS011;41530;52.382;5.270;2023-04-24T09:01:48;2.15;;;1.10;;
55655;SDS011;41530;52.382;5.270;2023-04-24T09:04:17;1.85;;;1.05;;
55655;SDS011;41530;52.382;5.270;2023-04-24T09:06:47;1.98;;;1.10;;
55655;SDS011;41530;52.382;5.270;2023-04-24T09:09:15;3.38;;;1.10;;
55655;SDS011;41530;52.382;5.270;2023-04-24T09:11:43;1.45;;;0.90;;
55655;SDS011;41530;52.382;5.270;2023-04-24T09:14:10;1.33;;;1.10;;
55655;SDS011;41530;52.382;5.270;2023-04-24T09:16:37;1.95;;;1.10;;
55655;SDS011;41530;52.382;5.270;2023-04-24T09:19:03;1.77;;;1.30;;
55655;SDS011;41530;52.382;5.270;2023-04-24T09:21:34;1.77;;;1.08;;
55655;SDS011;41530;52.382;5.270;2023-04-24T09:24:05;2.25;;;1.17;;
55655;SDS011;41530;52.382;5.270;2023-04-24T09:26:35;2.45;;;1.10;;
55655;SDS011;41530;52.382;5.270;2023-04-24T09:29:02;2.03;;;1.10;;
55655;SDS011;41530;52.382;5.270;2023-04-24T09:31:30;2.38;;;0.95;;
55655;SDS011;41530;52.382;5.270;2023-04-24T09:36:31;4.00;;;1.30;;
55655;SDS011;41530;52.382;5.270;2023-04-24T09:39:00;2.60;;;1.10;;
55655;SDS011;41530;52.382;5.270;2023-04-24T09:41:28;3.45;;;1.05;;
55655;SDS011;41530;52.382;5.270;2023-04-24T09:44:01;1.45;;;1.00;;
55655;SDS011;41530;52.382;5.270;2023-04-24T09:46:41;1.27;;;0.98;;
55655;SDS011;41530;52.382;5.270;2023-04-24T09:49:11;2.80;;;1.20;;
55655;SDS011;41530;52.382;5.270;2023-04-24T09:51:41;2.90;;;1.00;;
55655;SDS011;41530;52.382;5.270;2023-04-24T09:54:15;3.65;;;1.17;;
55655;SDS011;41530;52.382;5.270;2023-04-24T09:56:48;1.42;;;1.10;;
55655;SDS011;41530;52.382;5.270;2023-04-24T09:59:18;2.72;;;1.20;;
55655;SDS011;41530;52.382;5.270;2023-04-24T10:01:45;1.98;;;0.80;;
55655;SDS011;41530;52.382;5.270;2023-04-24T10:04:15;1.65;;;0.90;;
55655;SDS011;41530;52.382;5.270;2023-04-24T10:06:42;1.80;;;1.20;;
55655;SDS011;41530;52.382;5.270;2023-04-24T10:09:09;2.50;;;1.10;;
55655;SDS011;41530;52.382;5.270;2023-04-24T10:11:39;1.48;;;1.00;;
55655;SDS011;41530;52.382;5.270;2023-04-24T10:14:09;1.58;;;0.80;;
55655;SDS011;41530;52.382;5.270;2023-04-24T10:16:39;2.50;;;1.30;;
55655;SDS011;41530;52.382;5.270;2023-04-24T10:19:07;2.10;;;1.15;;
55655;SDS011;41530;52.382;5.270;2023-04-24T10:21:34;2.40;;;0.98;;
55655;SDS011;41530;52.382;5.270;2023-04-24T10:24:04;2.47;;;1.10;;
55655;SDS011;41530;52.382;5.270;2023-04-24T10:26:33;2.22;;;0.80;;
55655;SDS011;41530;52.382;5.270;2023-04-24T10:29:01;1.73;;;1.00;;
55655;SDS011;41530;52.382;5.270;2023-04-24T10:31:30;2.33;;;0.80;;
55655;SDS011;41530;52.382;5.270;2023-04-24T10:33:58;2.75;;;1.00;;
55655;SDS011;41530;52.382;5.270;2023-04-24T10:36:27;2.10;;;1.10;;
55655;SDS011;41530;52.382;5.270;2023-04-24T10:38:55;1.58;;;0.85;;
55655;SDS011;41530;52.382;5.270;2023-04-24T10:41:24;0.70;;;0.60;;
55655;SDS011;41530;52.382;5.270;2023-04-24T10:44:03;1.27;;;0.90;;
55655;SDS011;41530;52.382;5.270;2023-04-24T10:46:30;1.92;;;0.90;;
55655;SDS011;41530;52.382;5.270;2023-04-24T10:48:58;1.15;;;0.80;;
55655;SDS011;41530;52.382;5.270;2023-04-24T10:51:42;1.27;;;0.70;;
55655;SDS011;41530;52.382;5.270;2023-04-24T10:54:23;3.30;;;0.90;;
55655;SDS011;41530;52.382;5.270;2023-04-24T10:59:50;2.17;;;0.80;;
55655;SDS011;41530;52.382;5.270;2023-04-24T11:02:36;1.40;;;0.85;;
55655;SDS011;41530;52.382;5.270;2023-04-24T11:05:04;1.17;;;0.88;;
55655;SDS011;41530;52.382;5.270;2023-04-24T11:10:40;1.30;;;0.88;;
55655;SDS011;41530;52.382;5.270;2023-04-24T11:13:10;2.60;;;0.90;;
55655;SDS011;41530;52.382;5.270;2023-04-24T11:15:38;0.82;;;0.63;;
55655;SDS011;41530;52.382;5.270;2023-04-24T11:18:15;1.02;;;0.70;;
55655;SDS011;41530;52.382;5.270;2023-04-24T11:20:43;1.27;;;0.80;;
55655;SDS011;41530;52.382;5.270;2023-04-24T11:23:11;1.45;;;0.90;;
55655;SDS011;41530;52.382;5.270;2023-04-24T11:25:39;1.55;;;0.90;;
55655;SDS011;41530;52.382;5.270;2023-04-24T11:28:05;1.35;;;0.68;;
55655;SDS011;41530;52.382;5.270;2023-04-24T11:30:32;2.20;;;0.80;;
55655;SDS011;41530;52.382;5.270;2023-04-24T11:33:03;2.38;;;1.05;;
55655;SDS011;41530;52.382;5.270;2023-04-24T11:35:34;1.48;;;0.73;;
55655;SDS011;41530;52.382;5.270;2023-04-24T11:38:03;1.05;;;0.80;;
55655;SDS011;41530;52.382;5.270;2023-04-24T11:40:34;1.40;;;0.73;;
55655;SDS011;41530;52.382;5.270;2023-04-24T11:43:01;3.00;;;0.88;;
55655;SDS011;41530;52.382;5.270;2023-04-24T11:45:33;1.38;;;0.77;;
55655;SDS011;41530;52.382;5.270;2023-04-24T11:48:00;1.60;;;0.82;;
55655;SDS011;41530;52.382;5.270;2023-04-24T11:50:26;1.58;;;0.88;;
55655;SDS011;41530;52.382;5.270;2023-04-24T11:52:55;2.47;;;0.73;;
55655;SDS011;41530;52.382;5.270;2023-04-24T11:57:50;0.77;;;0.77;;
55655;SDS011;41530;52.382;5.270;2023-04-24T12:00:18;2.78;;;0.70;;
55655;SDS011;41530;52.382;5.270;2023-04-24T12:02:49;0.93;;;0.70;;
55655;SDS011;41530;52.382;5.270;2023-04-24T12:05:21;1.85;;;0.63;;
55655;SDS011;41530;52.382;5.270;2023-04-24T12:07:49;0.95;;;0.50;;
55655;SDS011;41530;52.382;5.270;2023-04-24T12:10:26;2.30;;;0.52;;
55655;SDS011;41530;52.382;5.270;2023-04-24T12:12:55;1.25;;;0.68;;
55655;SDS011;41530;52.382;5.270;2023-04-24T12:15:23;2.35;;;0.90;;
55655;SDS011;41530;52.382;5.270;2023-04-24T12:17:51;1.17;;;0.77;;
55655;SDS011;41530;52.382;5.270;2023-04-24T12:20:23;1.52;;;0.50;;
55655;SDS011;41530;52.382;5.270;2023-04-24T12:22:57;1.48;;;0.68;;
55655;SDS011;41530;52.382;5.270;2023-04-24T12:25:27;2.08;;;0.60;;
55655;SDS011;41530;52.382;5.270;2023-04-24T12:30:32;2.20;;;0.70;;
55655;SDS011;41530;52.382;5.270;2023-04-24T12:33:00;1.40;;;0.60;;
55655;SDS011;41530;52.382;5.270;2023-04-24T12:35:28;1.85;;;0.60;;
55655;SDS011;41530;52.382;5.270;2023-04-24T12:38:07;0.75;;;0.57;;
55655;SDS011;41530;52.382;5.270;2023-04-24T12:40:35;1.58;;;0.70;;
55655;SDS011;41530;52.382;5.270;2023-04-24T12:43:02;2.30;;;0.70;;
55655;SDS011;41530;52.382;5.270;2023-04-24T12:45:38;0.98;;;0.60;;
55655;SDS011;41530;52.382;5.270;2023-04-24T12:48:05;2.83;;;0.65;;
55655;SDS011;41530;52.382;5.270;2023-04-24T12:50:31;1.00;;;0.50;;
55655;SDS011;41530;52.382;5.270;2023-04-24T12:52:58;2.28;;;0.60;;
55655;SDS011;41530;52.382;5.270;2023-04-24T12:55:24;0.85;;;0.50;;
55655;SDS011;41530;52.382;5.270;2023-04-24T12:57:51;1.30;;;0.50;;
55655;SDS011;41530;52.382;5.270;2023-04-24T13:00:19;1.63;;;0.70;;
55655;SDS011;41530;52.382;5.270;2023-04-24T13:02:46;1.85;;;0.70;;
55655;SDS011;41530;52.382;5.270;2023-04-24T13:05:13;1.45;;;0.60;;
55655;SDS011;41530;52.382;5.270;2023-04-24T13:07:40;1.52;;;0.82;;
55655;SDS011;41530;52.382;5.270;2023-04-24T13:10:07;0.95;;;0.60;;
55655;SDS011;41530;52.382;5.270;2023-04-24T13:12:34;1.70;;;0.75;;
55655;SDS011;41530;52.382;5.270;2023-04-24T13:15:01;1.17;;;0.57;;
55655;SDS011;41530;52.382;5.270;2023-04-24T13:17:27;1.40;;;0.68;;
55655;SDS011;41530;52.382;5.270;2023-04-24T13:19:54;1.05;;;0.50;;
55655;SDS011;41530;52.382;5.270;2023-04-24T13:22:21;0.50;;;0.50;;
55655;SDS011;41530;52.382;5.270;2023-04-24T13:24:48;1.23;;;0.70;;
55655;SDS011;41530;52.382;5.270;2023-04-24T13:27:15;0.85;;;0.60;;
55655;SDS011;41530;52.382;5.270;2023-04-24T13:29:42;1.05;;;0.50;;
55655;SDS011;41530;52.382;5.270;2023-04-24T13:32:09;0.63;;;0.63;;
55655;SDS011;41530;52.382;5.270;2023-04-24T13:34:36;0.80;;;0.55;;
55655;SDS011;41530;52.382;5.270;2023-04-24T13:37:03;0.82;;;0.60;;
55655;SDS011;41530;52.382;5.270;2023-04-24T13:39:31;0.88;;;0.50;;
55655;SDS011;41530;52.382;5.270;2023-04-24T13:41:58;1.02;;;0.52;;
55655;SDS011;41530;52.382;5.270;2023-04-24T13:44:24;2.08;;;0.60;;
55655;SDS011;41530;52.382;5.270;2023-04-24T13:46:52;2.47;;;0.60;;
55655;SDS011;41530;52.382;5.270;2023-04-24T13:49:20;0.57;;;0.50;;
55655;SDS011;41530;52.382;5.270;2023-04-24T13:51:47;1.48;;;0.70;;
55655;SDS011;41530;52.382;5.270;2023-04-24T13:54:14;1.45;;;0.70;;
55655;SDS011;41530;52.382;5.270;2023-04-24T13:56:41;0.98;;;0.50;;
55655;SDS011;41530;52.382;5.270;2023-04-24T13:59:07;1.10;;;0.55;;
55655;SDS011;41530;52.382;5.270;2023-04-24T14:01:35;1.67;;;0.57;;
55655;SDS011;41530;52.382;5.270;2023-04-24T14:04:02;2.40;;;0.85;;
55655;SDS011;41530;52.382;5.270;2023-04-24T14:06:29;2.50;;;0.57;;
55655;SDS011;41530;52.382;5.270;2023-04-24T14:08:55;1.35;;;0.60;;
55655;SDS011;41530;52.382;5.270;2023-04-24T14:11:22;1.42;;;0.75;;
55655;SDS011;41530;52.382;5.270;2023-04-24T14:13:49;2.42;;;0.70;;
55655;SDS011;41530;52.382;5.270;2023-04-24T14:16:16;1.30;;;0.57;;
55655;SDS011;41530;52.382;5.270;2023-04-24T14:18:43;1.20;;;0.68;;
55655;SDS011;41530;52.382;5.270;2023-04-24T14:21:09;1.60;;;0.70;;
55655;SDS011;41530;52.382;5.270;2023-04-24T14:23:36;0.75;;;0.40;;
55655;SDS011;41530;52.382;5.270;2023-04-24T14:26:02;2.15;;;0.68;;
55655;SDS011;41530;52.382;5.270;2023-04-24T14:28:29;1.05;;;0.60;;
55655;SDS011;41530;52.382;5.270;2023-04-24T14:30:56;1.95;;;0.73;;
55655;SDS011;41530;52.382;5.270;2023-04-24T14:33:22;1.10;;;0.47;;
55655;SDS011;41530;52.382;5.270;2023-04-24T14:35:49;2.95;;;0.82;;
55655;SDS011;41530;52.382;5.270;2023-04-24T14:38:15;2.30;;;0.75;;
55655;SDS011;41530;52.382;5.270;2023-04-24T14:40:42;4.63;;;0.70;;
55655;SDS011;41530;52.382;5.270;2023-04-24T14:43:29;0.93;;;0.68;;
55655;SDS011;41530;52.382;5.270;2023-04-24T14:45:56;2.45;;;0.80;;
55655;SDS011;41530;52.382;5.270;2023-04-24T14:48:23;1.10;;;0.73;;
55655;SDS011;41530;52.382;5.270;2023-04-24T14:50:49;1.38;;;0.75;;
55655;SDS011;41530;52.382;5.270;2023-04-24T14:53:16;1.45;;;0.70;;
55655;SDS011;41530;52.382;5.270;2023-04-24T14:55:43;1.10;;;0.73;;
55655;SDS011;41530;52.382;5.270;2023-04-24T14:58:09;1.20;;;0.60;;
55655;SDS011;41530;52.382;5.270;2023-04-24T15:00:36;1.50;;;0.60;;
55655;SDS011;41530;52.382;5.270;2023-04-24T15:03:03;2.92;;;0.93;;
55655;SDS011;41530;52.382;5.270;2023-04-24T15:05:30;1.45;;;0.85;;